createdAt,value
2018-08-24T00:02:51.330Z,1.53
2018-08-24T00:05:18.975Z,1.73
2018-08-24T00:07:46.529Z,1.60
2018-08-24T00:10:14.077Z,1.80
2018-08-24T00:12:41.594Z,1.63
2018-08-24T00:15:09.181Z,2.30
2018-08-24T00:17:36.681Z,1.60
2018-08-24T00:20:04.262Z,2.10
2018-08-24T00:22:31.793Z,1.97
2018-08-24T00:24:59.334Z,1.80
2018-08-24T00:27:26.958Z,2.20
2018-08-24T00:29:54.485Z,1.50
2018-08-24T00:32:22.023Z,2.20
2018-08-24T00:34:49.519Z,1.80
2018-08-24T00:37:17.069Z,1.90
2018-08-24T00:39:44.887Z,2.20
2018-08-24T00:42:13.038Z,1.83
2018-08-24T00:44:41.032Z,2.07
2018-08-24T00:47:08.637Z,2.03
2018-08-24T00:49:36.135Z,2.17
2018-08-24T00:52:03.670Z,1.97
2018-08-24T00:54:31.197Z,2.13
2018-08-24T00:56:58.721Z,1.73
2018-08-24T00:59:26.219Z,2.40
2018-08-24T01:01:53.804Z,2.60
2018-08-24T01:04:26.837Z,2.70
2018-08-24T01:06:54.435Z,2.40
2018-08-24T01:09:21.906Z,2.60
2018-08-24T01:11:55.032Z,2.63
2018-08-24T01:14:22.540Z,2.30
2018-08-24T01:18:58.371Z,2.47
2018-08-24T01:21:25.868Z,2.87
2018-08-24T01:23:53.384Z,2.77
2018-08-24T01:26:23.920Z,2.40
2018-08-24T01:28:51.866Z,2.80
2018-08-24T01:31:19.736Z,2.63
2018-08-24T01:33:47.267Z,2.27
2018-08-24T01:36:14.874Z,2.63
2018-08-24T01:38:42.426Z,3.10
2018-08-24T01:41:09.986Z,3.07
2018-08-24T01:43:37.522Z,2.80
2018-08-24T01:46:11.564Z,3.10
2018-08-24T01:48:39.908Z,2.70
2018-08-24T01:51:07.484Z,2.67
2018-08-24T01:53:35.049Z,3.07
2018-08-24T01:56:02.585Z,2.93
2018-08-24T01:58:30.110Z,3.10
2018-08-24T02:00:57.610Z,2.40
2018-08-24T02:03:25.124Z,2.57
2018-08-24T02:05:57.536Z,3.00
2018-08-24T02:08:25.144Z,2.93
2018-08-24T02:10:52.668Z,3.57
2018-08-24T02:13:25.973Z,3.13
2018-08-24T02:15:53.532Z,3.30
2018-08-24T02:18:26.832Z,3.00
2018-08-24T02:21:00.077Z,3.17
2018-08-24T02:23:27.640Z,2.67
2018-08-24T02:25:55.150Z,2.80
2018-08-24T02:28:22.682Z,3.40
2018-08-24T02:30:50.233Z,3.23
2018-08-24T02:33:17.772Z,2.67
2018-08-24T02:35:45.258Z,3.30
2018-08-24T02:38:12.762Z,2.90
2018-08-24T02:40:40.243Z,3.23
2018-08-24T02:43:07.778Z,2.10
2018-08-24T02:45:35.299Z,2.60
2018-08-24T02:48:02.824Z,2.83
2018-08-24T02:50:30.314Z,3.27
2018-08-24T02:52:57.824Z,3.20
2018-08-24T02:55:25.353Z,3.60
2018-08-24T02:57:52.890Z,2.70
2018-08-24T03:00:20.450Z,3.17
2018-08-24T03:02:47.994Z,2.80
2018-08-24T03:07:49.902Z,3.50
2018-08-24T03:10:17.441Z,2.97
2018-08-24T03:12:44.968Z,3.50
2018-08-24T03:15:12.489Z,3.37
2018-08-24T03:17:45.652Z,2.80
2018-08-24T03:20:13.164Z,2.90
2018-08-24T03:22:40.625Z,3.30
2018-08-24T03:25:08.096Z,2.93
2018-08-24T03:27:35.628Z,3.10
2018-08-24T03:30:03.228Z,3.30
2018-08-24T03:32:30.691Z,3.30
2018-08-24T03:34:58.237Z,3.00
2018-08-24T03:37:26.082Z,2.53
2018-08-24T03:39:53.649Z,2.93
2018-08-24T03:42:21.171Z,2.80
2018-08-24T03:44:48.661Z,2.33
2018-08-24T03:47:16.170Z,2.50
2018-08-24T03:49:43.677Z,3.13
2018-08-24T03:52:11.191Z,2.63
2018-08-24T03:54:38.795Z,2.50
2018-08-24T03:57:06.386Z,2.93
2018-08-24T03:59:34.087Z,3.43
2018-08-24T04:02:01.629Z,2.70
2018-08-24T04:04:29.137Z,3.40
2018-08-24T04:06:56.636Z,3.07
2018-08-24T04:09:24.112Z,2.87
2018-08-24T04:11:51.796Z,2.90
2018-08-24T04:14:19.310Z,2.83
2018-08-24T04:16:52.479Z,3.13
2018-08-24T04:19:26.335Z,3.50
2018-08-24T04:21:54.176Z,3.47
2018-08-24T04:24:22.033Z,3.00
2018-08-24T04:26:49.554Z,3.27
2018-08-24T04:29:17.091Z,2.33
2018-08-24T04:31:44.578Z,3.27
2018-08-24T04:34:12.123Z,2.67
2018-08-24T04:36:39.707Z,2.63
2018-08-24T04:39:08.777Z,3.00
2018-08-24T04:41:36.430Z,2.67
2018-08-24T04:44:03.998Z,3.10
2018-08-24T04:46:31.947Z,3.07
2018-08-24T04:48:59.416Z,3.47
2018-08-24T04:51:27.206Z,3.53
2018-08-24T04:53:54.670Z,3.10
2018-08-24T04:56:22.149Z,3.20
2018-08-24T04:58:49.705Z,3.30
2018-08-24T05:01:17.234Z,3.60
2018-08-24T05:03:44.755Z,3.40
2018-08-24T05:06:12.296Z,2.90
2018-08-24T05:08:39.792Z,2.90
2018-08-24T05:11:07.289Z,2.90
2018-08-24T05:13:34.793Z,3.27
2018-08-24T05:16:02.350Z,2.50
2018-08-24T05:18:29.822Z,2.47
2018-08-24T05:20:57.331Z,2.80
2018-08-24T05:23:24.921Z,3.10
2018-08-24T05:25:52.449Z,2.30
2018-08-24T05:28:19.949Z,2.73
2018-08-24T05:30:48.392Z,2.40
2018-08-24T05:33:15.921Z,2.50
2018-08-24T05:35:43.530Z,2.30
2018-08-24T05:38:10.993Z,1.93
2018-08-24T05:40:38.841Z,2.13
2018-08-24T05:43:06.641Z,2.10
2018-08-24T05:45:34.171Z,2.50
2018-08-24T05:48:01.727Z,2.40
2018-08-24T05:50:29.316Z,3.03
2018-08-24T05:52:56.897Z,2.10
2018-08-24T05:55:24.494Z,2.07
2018-08-24T05:57:52.081Z,2.00
2018-08-24T06:00:24.142Z,1.90
2018-08-24T06:02:51.729Z,1.90
2018-08-24T06:05:19.263Z,1.93
2018-08-24T06:07:46.798Z,1.90
2018-08-24T06:10:14.389Z,2.23
2018-08-24T06:12:41.849Z,1.80
2018-08-24T06:15:09.509Z,1.93
2018-08-24T06:17:42.768Z,1.77
2018-08-24T06:20:10.385Z,1.77
2018-08-24T06:22:38.431Z,1.83
2018-08-24T06:25:06.102Z,1.70
2018-08-24T06:27:33.593Z,1.60
2018-08-24T06:30:01.128Z,1.60
2018-08-24T06:32:28.649Z,1.60
2018-08-24T06:34:56.133Z,2.07
2018-08-24T06:37:23.731Z,1.63
2018-08-24T06:39:51.294Z,2.00
2018-08-24T06:42:18.868Z,1.37
2018-08-24T06:44:46.409Z,1.53
2018-08-24T06:47:13.959Z,1.60
2018-08-24T06:49:41.469Z,1.83
2018-08-24T06:52:09.002Z,1.60
2018-08-24T06:54:36.509Z,1.50
2018-08-24T06:57:04.090Z,1.43
2018-08-24T06:59:31.667Z,2.17
2018-08-24T07:01:59.188Z,1.50
2018-08-24T07:04:26.870Z,0.97
2018-08-24T07:06:54.404Z,1.40
2018-08-24T07:09:21.915Z,1.10
2018-08-24T07:11:49.421Z,1.23
2018-08-24T07:14:16.981Z,0.90
2018-08-24T07:16:44.528Z,1.40
2018-08-24T07:19:11.998Z,1.00
2018-08-24T07:21:39.508Z,0.57
2018-08-24T07:24:07.049Z,1.20
2018-08-24T07:26:34.582Z,1.97
2018-08-24T07:29:02.059Z,1.30
2018-08-24T07:31:29.599Z,1.50
2018-08-24T07:33:57.138Z,1.53
2018-08-24T07:36:24.691Z,1.00
2018-08-24T07:38:52.153Z,1.33
2018-08-24T07:41:19.668Z,1.10
2018-08-24T07:43:47.225Z,1.23
2018-08-24T07:46:14.798Z,0.80
2018-08-24T07:48:42.316Z,0.80
2018-08-24T07:51:09.814Z,1.07
2018-08-24T07:53:37.506Z,0.90
2018-08-24T07:56:05.570Z,0.80
2018-08-24T07:58:33.060Z,0.77
2018-08-24T08:01:00.524Z,1.37
2018-08-24T08:03:28.000Z,1.03
2018-08-24T08:05:55.519Z,0.70
2018-08-24T08:08:23.051Z,0.83
2018-08-24T08:10:50.531Z,0.60
2018-08-24T08:13:18.011Z,1.00
2018-08-24T08:15:45.603Z,1.10
2018-08-24T08:18:13.238Z,0.63
2018-08-24T08:20:40.787Z,0.70
2018-08-24T08:23:08.305Z,0.93
2018-08-24T08:25:35.854Z,1.03
2018-08-24T08:28:03.393Z,0.60
2018-08-24T08:30:30.917Z,0.80
2018-08-24T08:32:58.391Z,1.07
2018-08-24T08:35:25.987Z,0.80
2018-08-24T08:37:53.584Z,0.83
2018-08-24T08:40:21.121Z,1.13
2018-08-24T08:42:48.744Z,0.70
2018-08-24T08:45:16.447Z,0.60
2018-08-24T08:47:44.117Z,0.73
2018-08-24T08:50:11.775Z,0.60
2018-08-24T08:52:39.337Z,0.90
2018-08-24T08:55:06.987Z,0.93
2018-08-24T08:57:34.668Z,0.93
2018-08-24T09:00:02.267Z,0.60
2018-08-24T09:02:29.784Z,0.67
2018-08-24T09:04:57.315Z,0.90
2018-08-24T09:07:24.834Z,0.53
2018-08-24T09:09:52.351Z,0.60
2018-08-24T09:12:19.921Z,0.80
2018-08-24T09:14:47.431Z,0.70
2018-08-24T09:17:20.545Z,0.53
2018-08-24T09:19:53.835Z,0.80
2018-08-24T09:22:27.014Z,0.97
2018-08-24T09:25:00.246Z,0.90
2018-08-24T09:27:38.197Z,2.33
2018-08-24T09:30:05.843Z,1.17
2018-08-24T09:32:33.481Z,1.00
2018-08-24T09:35:00.884Z,1.10
2018-08-24T09:37:34.219Z,1.20
2018-08-24T09:40:01.856Z,1.00
2018-08-24T09:42:29.318Z,0.90
2018-08-24T09:44:56.895Z,1.00
2018-08-24T09:47:29.961Z,1.20
2018-08-24T09:50:02.008Z,0.83
2018-08-24T09:52:29.600Z,1.00
2018-08-24T09:54:57.200Z,0.70
2018-08-24T09:57:24.733Z,0.70
2018-08-24T09:59:52.254Z,0.70
2018-08-24T10:02:26.212Z,0.70
2018-08-24T10:04:59.410Z,0.50
2018-08-24T10:07:31.909Z,0.90
2018-08-24T10:09:59.745Z,0.70
2018-08-24T10:12:31.945Z,1.03
2018-08-24T10:14:59.455Z,0.87
2018-08-24T10:17:26.951Z,1.00
2018-08-24T10:19:54.600Z,0.60
2018-08-24T10:22:22.150Z,0.83
2018-08-24T10:24:49.676Z,1.00
2018-08-24T10:27:17.206Z,0.63
2018-08-24T10:29:44.831Z,0.93
2018-08-24T10:32:12.268Z,0.80
2018-08-24T10:34:39.769Z,1.33
2018-08-24T10:37:07.290Z,1.23
2018-08-24T10:39:34.818Z,0.90
2018-08-24T10:42:02.342Z,1.30
2018-08-24T10:44:29.862Z,1.23
2018-08-24T10:46:57.353Z,1.60
2018-08-24T10:49:24.982Z,1.30
2018-08-24T10:51:52.485Z,2.13
2018-08-24T10:54:20.039Z,1.80
2018-08-24T10:56:47.543Z,1.40
2018-08-24T10:59:15.068Z,1.37
2018-08-24T11:01:42.557Z,1.40
2018-08-24T11:04:10.060Z,1.67
2018-08-24T11:06:37.588Z,1.30
2018-08-24T11:09:07.322Z,1.53
2018-08-24T11:11:34.933Z,1.20
2018-08-24T11:14:02.605Z,1.17
2018-08-24T11:16:30.116Z,1.30
2018-08-24T11:18:57.642Z,1.23
